createdAt,value
2018-09-12T00:01:31.524Z,16.95
2018-09-12T00:04:00.472Z,16.98
2018-09-12T00:06:29.431Z,17.02
2018-09-12T00:08:58.461Z,17.01
2018-09-12T00:11:27.415Z,16.96
2018-09-12T00:13:56.379Z,16.94
2018-09-12T00:16:25.322Z,16.90
2018-09-12T00:18:54.302Z,16.86
2018-09-12T00:21:23.253Z,16.82
2018-09-12T00:23:52.350Z,16.88
2018-09-12T00:26:21.430Z,16.96
2018-09-12T00:28:50.400Z,17.03
2018-09-12T00:31:19.416Z,17.07
2018-09-12T00:33:48.583Z,17.08
2018-09-12T00:36:17.557Z,17.11
2018-09-12T00:38:46.500Z,17.20
2018-09-12T00:41:15.507Z,17.24
2018-09-12T00:43:44.459Z,17.29
2018-09-12T00:46:13.461Z,17.36
2018-09-12T00:48:42.453Z,17.40
2018-09-12T00:51:11.396Z,17.43
2018-09-12T00:53:40.356Z,17.42
2018-09-12T00:56:09.355Z,17.40
2018-09-12T00:58:38.331Z,17.39
2018-09-12T01:01:07.619Z,17.36
2018-09-12T01:03:36.619Z,17.44
2018-09-12T01:06:05.613Z,17.51
2018-09-12T01:08:34.575Z,17.58
2018-09-12T01:11:03.494Z,17.61
2018-09-12T01:13:32.718Z,17.61
2018-09-12T01:16:01.678Z,17.66
2018-09-12T01:18:30.635Z,17.70
2018-09-12T01:20:59.578Z,17.72
2018-09-12T01:23:28.502Z,17.70
2018-09-12T01:25:57.466Z,17.70
2018-09-12T01:28:26.425Z,17.73
2018-09-12T01:30:55.410Z,17.74
2018-09-12T01:33:24.368Z,17.73
2018-09-12T01:35:53.411Z,17.75
2018-09-12T01:38:22.367Z,17.80
2018-09-12T01:40:51.357Z,17.84
2018-09-12T01:43:20.323Z,17.91
2018-09-12T01:45:49.336Z,17.94
2018-09-12T01:48:18.319Z,17.95
2018-09-12T01:50:47.340Z,17.98
2018-09-12T01:53:16.308Z,18.00
2018-09-12T01:55:45.274Z,18.00
2018-09-12T01:58:14.236Z,18.00
2018-09-12T02:00:43.419Z,18.00
2018-09-12T02:03:12.402Z,18.02
2018-09-12T02:05:41.373Z,18.06
2018-09-12T02:08:10.382Z,18.09
2018-09-12T02:10:39.375Z,18.05
2018-09-12T02:13:08.340Z,18.13
2018-09-12T02:15:37.353Z,18.17
2018-09-12T02:18:06.452Z,18.19
2018-09-12T02:20:35.576Z,18.22
2018-09-12T02:23:04.661Z,18.23
2018-09-12T02:25:33.651Z,18.25
2018-09-12T02:28:02.587Z,18.17
2018-09-12T02:30:31.647Z,18.22
2018-09-12T02:33:00.601Z,18.21
2018-09-12T02:35:29.727Z,18.17
2018-09-12T02:37:58.688Z,18.07
2018-09-12T02:40:27.761Z,17.97
2018-09-12T02:42:56.767Z,17.90
2018-09-12T02:45:25.790Z,17.82
2018-09-12T02:47:54.829Z,17.69
2018-09-12T02:50:23.769Z,17.58
2018-09-12T02:52:52.761Z,17.49
2018-09-12T02:55:21.812Z,17.43
2018-09-12T02:57:50.782Z,17.40
2018-09-12T03:00:19.754Z,17.31
2018-09-12T03:02:48.760Z,17.22
2018-09-12T03:05:17.729Z,17.16
2018-09-12T03:07:46.743Z,17.14
2018-09-12T03:10:15.798Z,17.16
2018-09-12T03:12:44.767Z,17.10
2018-09-12T03:15:13.750Z,17.04
2018-09-12T03:17:42.763Z,16.98
2018-09-12T03:20:11.727Z,16.94
2018-09-12T03:22:40.765Z,16.87
2018-09-12T03:25:09.814Z,16.94
2018-09-12T03:27:38.955Z,16.97
2018-09-12T03:30:08.328Z,17.04
2018-09-12T03:32:37.277Z,17.13
2018-09-12T03:35:06.440Z,16.88
2018-09-12T03:37:35.460Z,17.16
2018-09-12T03:40:04.428Z,17.10
2018-09-12T03:42:33.365Z,17.01
2018-09-12T03:45:02.463Z,16.95
2018-09-12T03:47:31.427Z,16.94
2018-09-12T03:50:00.369Z,16.98
2018-09-12T03:52:29.381Z,17.03
2018-09-12T03:54:58.430Z,17.11
2018-09-12T03:57:27.393Z,17.14
2018-09-12T03:59:56.419Z,17.20
2018-09-12T04:02:25.391Z,17.21
2018-09-12T04:04:54.640Z,17.21
2018-09-12T04:07:23.728Z,17.24
2018-09-12T04:09:52.688Z,17.26
2018-09-12T04:12:21.701Z,17.25
2018-09-12T04:14:50.670Z,17.11
2018-09-12T04:17:19.617Z,17.02
2018-09-12T04:19:48.596Z,16.92
2018-09-12T04:22:17.539Z,16.89
2018-09-12T04:24:46.487Z,16.88
2018-09-12T04:27:15.432Z,16.84
2018-09-12T04:29:44.471Z,16.79
2018-09-12T04:32:13.423Z,16.76
2018-09-12T04:34:42.350Z,16.71
2018-09-12T04:37:11.343Z,16.70
2018-09-12T04:39:40.287Z,16.74
2018-09-12T04:42:09.306Z,16.75
2018-09-12T04:44:38.357Z,16.79
2018-09-12T04:47:07.522Z,16.83
2018-09-12T04:49:36.491Z,16.95
2018-09-12T04:52:05.431Z,17.31
2018-09-12T04:54:34.388Z,17.43
2018-09-12T04:57:03.319Z,17.47
2018-09-12T04:59:32.357Z,17.57
2018-09-12T05:02:01.319Z,17.85
2018-09-12T05:04:30.291Z,18.15
2018-09-12T05:06:59.243Z,18.44
2018-09-12T05:09:28.246Z,18.69
2018-09-12T05:11:57.166Z,18.97
2018-09-12T05:14:26.123Z,19.15
2018-09-12T05:16:55.128Z,19.46
2018-09-12T05:19:24.084Z,19.56
2018-09-12T05:21:53.084Z,19.65
2018-09-12T05:24:22.025Z,19.72
2018-09-12T05:26:51.182Z,19.75
2018-09-12T05:29:20.129Z,19.80
2018-09-12T05:31:49.134Z,19.92
2018-09-12T05:34:18.256Z,19.84
2018-09-12T05:36:47.203Z,19.85
2018-09-12T05:39:16.272Z,19.89
2018-09-12T05:41:45.197Z,20.03
2018-09-12T05:44:14.281Z,20.14
2018-09-12T05:46:43.284Z,20.14
2018-09-12T05:49:12.296Z,20.10
2018-09-12T05:51:41.233Z,20.11
2018-09-12T05:54:10.248Z,20.04
2018-09-12T05:56:39.227Z,20.00
2018-09-12T05:59:08.270Z,19.97
2018-09-12T06:01:37.287Z,19.99
2018-09-12T06:04:06.306Z,20.02
2018-09-12T06:06:35.459Z,20.09
2018-09-12T06:09:04.939Z,20.17
2018-09-12T06:11:33.923Z,20.24
2018-09-12T06:14:02.969Z,20.29
2018-09-12T06:16:31.969Z,20.14
2018-09-12T06:19:00.970Z,19.95
2018-09-12T06:21:29.968Z,19.88
2018-09-12T06:23:58.965Z,19.80
2018-09-12T06:26:27.927Z,19.74
2018-09-12T06:28:57.019Z,19.75
2018-09-12T06:31:26.089Z,19.83
2018-09-12T06:33:55.120Z,19.96
2018-09-12T06:36:24.095Z,20.09
2018-09-12T06:38:53.100Z,20.26
2018-09-12T06:41:22.312Z,20.18
2018-09-12T06:43:51.291Z,20.46
2018-09-12T06:46:20.282Z,20.61
2018-09-12T06:48:49.221Z,20.58
2018-09-12T06:51:18.309Z,20.69
2018-09-12T06:53:47.309Z,20.67
2018-09-12T06:56:16.370Z,20.62
2018-09-12T06:58:45.350Z,20.57
2018-09-12T07:01:14.381Z,20.59
2018-09-12T07:03:43.379Z,20.67
2018-09-12T07:06:12.420Z,20.69
2018-09-12T07:08:41.380Z,20.74
2018-09-12T07:11:10.353Z,20.82
2018-09-12T07:13:39.420Z,20.78
2018-09-12T07:16:08.395Z,20.83
2018-09-12T07:18:37.401Z,20.89
2018-09-12T07:21:06.474Z,20.92
2018-09-12T07:23:35.479Z,20.97
2018-09-12T07:26:04.508Z,20.94
2018-09-12T07:28:33.528Z,20.85
2018-09-12T07:31:02.505Z,20.81
2018-09-12T07:33:31.450Z,20.67
2018-09-12T07:36:00.473Z,20.71
2018-09-12T07:38:29.473Z,20.87
2018-09-12T07:40:58.501Z,20.97
2018-09-12T07:43:27.554Z,21.24
2018-09-12T07:45:56.539Z,21.56
2018-09-12T07:48:25.569Z,21.69
2018-09-12T07:50:54.589Z,22.07
2018-09-12T07:53:23.752Z,22.47
2018-09-12T07:55:52.813Z,22.65
2018-09-12T07:58:21.920Z,22.97
2018-09-12T08:00:50.951Z,23.24
2018-09-12T08:03:19.970Z,23.66
2018-09-12T08:05:48.983Z,23.80
2018-09-12T08:08:17.961Z,23.77
2018-09-12T08:10:46.930Z,23.74
2018-09-12T08:13:15.907Z,23.84
2018-09-12T08:15:44.891Z,23.84
2018-09-12T08:18:13.936Z,23.85
2018-09-12T08:20:43.021Z,23.98
2018-09-12T08:23:12.038Z,24.11
2018-09-12T08:25:41.016Z,24.37
2018-09-12T08:28:09.995Z,24.39
2018-09-12T08:30:39.011Z,24.26
2018-09-12T08:33:07.986Z,24.16
2018-09-12T08:35:36.987Z,23.83
2018-09-12T08:38:06.580Z,23.53
2018-09-12T08:40:35.584Z,23.12
2018-09-12T08:43:04.665Z,22.73
2018-09-12T08:45:33.684Z,22.61
2018-09-12T08:48:02.756Z,22.36
2018-09-12T08:50:31.745Z,22.03
2018-09-12T08:53:00.799Z,21.89
2018-09-12T08:55:29.701Z,21.80
2018-09-12T08:57:58.662Z,21.61
2018-09-12T09:00:33.799Z,21.56
2018-09-12T09:03:03.722Z,21.52
2018-09-12T09:05:32.797Z,21.53
2018-09-12T09:08:01.754Z,21.48
2018-09-12T09:10:30.838Z,21.57
2018-09-12T09:12:59.863Z,21.52
2018-09-12T09:15:29.090Z,21.59
2018-09-12T09:17:58.200Z,21.58
2018-09-12T09:20:27.219Z,21.67
2018-09-12T09:22:56.196Z,21.81
2018-09-12T09:25:25.258Z,21.79
2018-09-12T09:27:54.383Z,21.88
2018-09-12T09:30:26.340Z,22.01
2018-09-12T09:32:55.352Z,22.03
2018-09-12T09:35:24.405Z,21.86
2018-09-12T09:37:53.335Z,21.66
2018-09-12T09:40:22.306Z,21.50
2018-09-12T09:42:51.303Z,21.46
2018-09-12T09:45:20.264Z,21.27
2018-09-12T09:47:49.557Z,21.11
2018-09-12T09:50:18.599Z,20.92
2018-09-12T09:52:47.528Z,20.86
2018-09-12T09:55:16.509Z,20.87
2018-09-12T09:57:45.574Z,20.94
2018-09-12T10:00:19.688Z,20.92
2018-09-12T10:02:53.706Z,20.83
2018-09-12T10:06:28.349Z,20.64
2018-09-12T10:08:58.837Z,20.36
2018-09-12T10:11:27.793Z,20.36
2018-09-12T10:13:56.728Z,20.39
2018-09-12T10:16:25.887Z,20.35
2018-09-12T10:18:54.841Z,20.39
2018-09-12T10:21:23.862Z,20.63
2018-09-12T10:23:52.802Z,20.98
2018-09-12T10:26:21.817Z,21.42
2018-09-12T10:28:50.864Z,21.75
2018-09-12T10:31:19.824Z,21.90
2018-09-12T10:33:48.787Z,21.98
2018-09-12T10:36:17.762Z,22.19
2018-09-12T10:38:46.726Z,22.13
2018-09-12T10:41:15.778Z,22.27
2018-09-12T10:43:44.784Z,22.56
2018-09-12T10:46:13.751Z,23.06
2018-09-12T10:48:42.692Z,23.61
2018-09-12T10:51:11.673Z,24.06
2018-09-12T10:53:40.647Z,24.42
2018-09-12T10:56:09.749Z,24.50
2018-09-12T10:58:38.810Z,24.53
2018-09-12T11:01:07.890Z,24.67
2018-09-12T11:03:36.845Z,24.83
2018-09-12T11:06:05.955Z,24.95
2018-09-12T11:08:34.940Z,25.19
2018-09-12T11:11:03.894Z,25.40
2018-09-12T11:13:33.127Z,25.65
2018-09-12T11:16:02.140Z,25.84
2018-09-12T11:18:31.104Z,25.83
2018-09-12T11:21:00.075Z,25.77
2018-09-12T11:23:29.037Z,25.53
2018-09-12T11:25:58.164Z,25.35
2018-09-12T11:28:27.181Z,25.16
2018-09-12T11:30:56.169Z,25.05
2018-09-12T11:33:25.111Z,25.18
2018-09-12T11:35:54.082Z,25.22
2018-09-12T11:38:23.041Z,25.36
2018-09-12T11:40:52.075Z,25.45
2018-09-12T11:43:21.077Z,25.58
2018-09-12T11:45:50.164Z,25.31
2018-09-12T11:48:19.124Z,25.27
2018-09-12T11:50:48.048Z,25.17
2018-09-12T11:53:17.083Z,24.92
2018-09-12T11:55:46.043Z,24.70
2018-09-12T11:58:14.996Z,24.79
2018-09-12T12:00:43.972Z,24.90
2018-09-12T12:03:12.931Z,25.10
2018-09-12T12:05:41.895Z,25.25
2018-09-12T12:08:10.992Z,25.35
2018-09-12T12:10:40.005Z,25.47
2018-09-12T12:13:08.989Z,25.58
2018-09-12T12:15:37.970Z,25.50
2018-09-12T12:18:06.938Z,25.54
2018-09-12T12:20:35.886Z,25.32
2018-09-12T12:23:04.832Z,25.70
2018-09-12T12:25:33.831Z,25.88
2018-09-12T12:28:02.852Z,25.95
2018-09-12T12:30:31.957Z,25.94
2018-09-12T12:33:00.903Z,26.28
2018-09-12T12:35:29.946Z,26.48
2018-09-12T12:37:58.916Z,26.54
2018-09-12T12:40:27.865Z,26.55
2018-09-12T12:42:56.864Z,26.58
2018-09-12T12:45:25.854Z,26.80
2018-09-12T12:47:54.989Z,26.54
2018-09-12T12:50:23.948Z,26.78
2018-09-12T12:52:52.913Z,26.70
2018-09-12T12:55:21.977Z,26.87
2018-09-12T12:57:50.923Z,26.84
2018-09-12T13:00:19.879Z,27.03
2018-09-12T13:02:48.806Z,27.03
2018-09-12T13:05:17.761Z,26.85
2018-09-12T13:07:46.761Z,26.93
2018-09-12T13:10:15.810Z,27.02
2018-09-12T13:12:44.752Z,27.53
2018-09-12T13:15:13.714Z,27.65
2018-09-12T13:17:42.667Z,27.23
2018-09-12T13:20:11.599Z,26.96
2018-09-12T13:22:40.586Z,26.84
2018-09-12T13:25:09.606Z,26.81
2018-09-12T13:27:38.706Z,26.62
2018-09-12T13:30:08.102Z,26.51
2018-09-12T13:32:37.260Z,26.13
2018-09-12T13:35:06.356Z,26.02
2018-09-12T13:37:35.319Z,25.84
2018-09-12T13:40:04.283Z,25.87
2018-09-12T13:42:33.252Z,25.79
2018-09-12T13:45:02.243Z,25.76
2018-09-12T13:47:31.207Z,25.80
2018-09-12T13:50:00.264Z,25.88
2018-09-12T13:52:29.376Z,25.95
2018-09-12T13:54:58.341Z,26.12
2018-09-12T13:57:27.299Z,26.10
2018-09-12T13:59:56.310Z,26.24
2018-09-12T14:02:25.260Z,26.17
2018-09-12T14:04:54.228Z,26.20
2018-09-12T14:07:23.394Z,26.22
2018-09-12T14:09:52.337Z,26.22
2018-09-12T14:12:21.298Z,26.17
2018-09-12T14:14:50.278Z,25.95
2018-09-12T14:17:19.352Z,25.83
2018-09-12T14:19:48.376Z,25.59
2018-09-12T14:22:17.385Z,25.83
2018-09-12T14:24:46.417Z,26.07
2018-09-12T14:27:15.432Z,26.19
2018-09-12T14:29:44.493Z,26.18
2018-09-12T14:32:13.484Z,26.19
2018-09-12T14:34:42.399Z,26.16
2018-09-12T14:37:11.490Z,26.06
2018-09-12T14:39:40.434Z,25.92
2018-09-12T14:42:09.435Z,26.01
2018-09-12T14:44:38.369Z,26.08
2018-09-12T14:47:07.456Z,26.05
2018-09-12T14:49:36.424Z,26.02
2018-09-12T14:52:05.519Z,25.88
2018-09-12T14:54:34.536Z,25.75
2018-09-12T14:57:03.516Z,25.65
2018-09-12T14:59:32.534Z,25.49
2018-09-12T15:02:01.561Z,25.34
2018-09-12T15:04:30.529Z,25.26
2018-09-12T15:06:59.541Z,25.14
2018-09-12T15:09:28.596Z,25.04
2018-09-12T15:11:57.625Z,24.84
2018-09-12T15:14:26.740Z,24.75
2018-09-12T15:16:55.708Z,24.60
2018-09-12T15:19:24.718Z,24.54
2018-09-12T15:21:53.713Z,24.32
2018-09-12T15:24:22.680Z,24.23
2018-09-12T15:26:51.718Z,24.24
2018-09-12T15:29:20.693Z,24.19
2018-09-12T15:31:49.701Z,24.12
2018-09-12T15:34:18.681Z,24.06
2018-09-12T15:36:47.704Z,23.99
2018-09-12T15:39:16.707Z,23.86
2018-09-12T15:41:45.764Z,23.76
2018-09-12T15:44:14.813Z,23.71
2018-09-12T15:46:43.885Z,23.65
2018-09-12T15:49:12.913Z,23.64
2018-09-12T15:51:41.931Z,23.56
2018-09-12T15:54:11.029Z,23.44
2018-09-12T15:56:40.058Z,23.33
2018-09-12T15:59:09.088Z,23.27
2018-09-12T16:01:38.045Z,23.21
2018-09-12T16:04:07.098Z,23.15
2018-09-12T16:06:36.079Z,23.04
2018-09-12T16:09:07.318Z,22.93
2018-09-12T16:11:36.321Z,22.77
2018-09-12T16:14:05.264Z,22.64
2018-09-12T16:16:34.286Z,22.53
2018-09-12T16:19:03.330Z,22.43
2018-09-12T16:21:32.371Z,22.36
2018-09-12T16:24:01.344Z,22.27
2018-09-12T16:26:30.319Z,22.21
2018-09-12T16:28:59.327Z,22.16
2018-09-12T16:31:28.448Z,22.07
2018-09-12T16:33:57.433Z,21.97
2018-09-12T16:36:26.933Z,21.90
2018-09-12T16:38:56.034Z,21.81
2018-09-12T16:41:25.088Z,21.74
2018-09-12T16:43:54.739Z,21.69
2018-09-12T16:46:23.710Z,21.66
2018-09-12T16:48:52.689Z,21.59
2018-09-12T16:51:21.809Z,21.54
2018-09-12T16:53:50.802Z,21.43
2018-09-12T16:56:19.801Z,21.30
2018-09-12T16:58:48.827Z,21.18
2018-09-12T17:01:17.868Z,21.01
2018-09-12T17:03:46.822Z,20.87
2018-09-12T17:06:15.850Z,20.73
2018-09-12T17:08:44.769Z,20.60
2018-09-12T17:11:13.723Z,20.53
2018-09-12T17:13:42.737Z,20.44
2018-09-12T17:16:11.762Z,20.36
2018-09-12T17:18:40.772Z,20.29
2018-09-12T17:21:09.737Z,20.19
2018-09-12T17:23:38.864Z,20.11
2018-09-12T17:26:07.849Z,20.03
2018-09-12T17:28:36.831Z,19.99
2018-09-12T17:31:05.869Z,19.93
2018-09-12T17:33:34.828Z,19.86
2018-09-12T17:36:03.913Z,19.78
2018-09-12T17:38:32.911Z,19.67
2018-09-12T17:41:01.953Z,19.64
2018-09-12T17:43:31.019Z,19.56
2018-09-12T17:46:00.105Z,19.53
2018-09-12T17:48:29.155Z,19.43
2018-09-12T17:50:58.132Z,19.37
2018-09-12T17:53:27.084Z,19.30
2018-09-12T17:55:56.032Z,19.24
2018-09-12T17:58:25.104Z,19.20
2018-09-12T18:00:54.164Z,19.16
2018-09-12T18:03:23.203Z,19.12
2018-09-12T18:05:52.223Z,19.05
2018-09-12T18:08:21.166Z,18.95
2018-09-12T18:10:50.274Z,18.91
2018-09-12T18:13:19.220Z,18.88
2018-09-12T18:15:48.209Z,18.85
2018-09-12T18:18:17.180Z,18.81
2018-09-12T18:20:46.273Z,18.76
2018-09-12T18:23:15.250Z,18.75
2018-09-12T18:25:44.187Z,18.78
2018-09-12T18:28:13.204Z,18.77
2018-09-12T18:30:42.360Z,18.78
2018-09-12T18:33:11.312Z,18.80
2018-09-12T18:35:40.369Z,18.88
2018-09-12T18:38:09.362Z,19.00
2018-09-12T18:40:38.329Z,19.07
2018-09-12T18:43:07.467Z,19.12
2018-09-12T18:45:36.423Z,19.18
2018-09-12T18:48:05.554Z,19.19
2018-09-12T18:50:34.622Z,19.22
2018-09-12T18:53:03.609Z,19.23
2018-09-12T18:55:32.681Z,19.18
2018-09-12T18:58:02.608Z,19.14
2018-09-12T19:00:31.751Z,19.07
2018-09-12T19:03:00.930Z,19.03
2018-09-12T19:05:30.320Z,18.97
2018-09-12T19:07:59.650Z,18.95
2018-09-12T19:10:28.660Z,18.89
2018-09-12T19:12:57.746Z,18.81
2018-09-12T19:15:26.712Z,18.73
2018-09-12T19:17:55.733Z,18.63
2018-09-12T19:20:24.753Z,18.53
2018-09-12T19:22:53.855Z,18.44
2018-09-12T19:25:22.890Z,18.36
2018-09-12T19:27:51.840Z,18.29
2018-09-12T19:30:20.875Z,18.21
2018-09-12T19:32:49.908Z,18.17
2018-09-12T19:35:18.889Z,18.18
2018-09-12T19:37:47.827Z,18.11
2018-09-12T19:40:16.843Z,18.06
2018-09-12T19:42:45.775Z,17.99
2018-09-12T19:45:14.805Z,17.92
2018-09-12T19:47:43.777Z,17.88
2018-09-12T19:50:12.727Z,17.81
2018-09-12T19:52:41.764Z,17.74
2018-09-12T19:55:10.943Z,17.67
2018-09-12T19:57:39.979Z,17.60
2018-09-12T20:00:14.651Z,17.58
2018-09-12T20:02:43.693Z,17.56
2018-09-12T20:05:12.825Z,17.52
2018-09-12T20:07:41.853Z,17.51
2018-09-12T20:10:10.845Z,17.49
2018-09-12T20:12:39.930Z,17.46
2018-09-12T20:15:09.037Z,17.43
2018-09-12T20:17:38.109Z,17.40
2018-09-12T20:20:07.108Z,17.43
2018-09-12T20:22:36.117Z,17.48
2018-09-12T20:25:05.129Z,17.55
2018-09-12T20:27:34.148Z,17.54
2018-09-12T20:30:03.248Z,17.54
2018-09-12T20:32:32.408Z,17.58
2018-09-12T20:35:01.412Z,17.60
2018-09-12T20:37:30.387Z,17.63
2018-09-12T20:39:59.393Z,17.68
2018-09-12T20:42:28.401Z,17.69
2018-09-12T20:44:57.354Z,17.66
2018-09-12T20:47:26.346Z,17.61
2018-09-12T20:49:55.288Z,17.55
2018-09-12T20:52:24.340Z,17.48
2018-09-12T20:54:53.372Z,17.41
2018-09-12T20:57:22.416Z,17.38
2018-09-12T20:59:51.455Z,17.37
2018-09-12T21:02:20.404Z,17.39
2018-09-12T21:04:49.357Z,17.44
2018-09-12T21:07:18.326Z,17.51
2018-09-12T21:09:47.359Z,17.57
2018-09-12T21:12:16.334Z,17.56
2018-09-12T21:14:45.401Z,17.56
2018-09-12T21:17:14.338Z,17.52
2018-09-12T21:19:43.280Z,17.43
2018-09-12T21:22:12.300Z,17.28
2018-09-12T21:24:41.241Z,17.19
2018-09-12T21:27:10.243Z,17.14
2018-09-12T21:29:39.265Z,17.07
2018-09-12T21:32:08.219Z,17.04
2018-09-12T21:34:37.208Z,17.03
2018-09-12T21:37:06.487Z,17.03
2018-09-12T21:39:35.507Z,17.01
2018-09-12T21:42:04.475Z,17.01
2018-09-12T21:44:33.424Z,16.97
2018-09-12T21:47:02.371Z,16.93
2018-09-12T21:49:31.328Z,16.90
2018-09-12T21:52:00.290Z,16.87
2018-09-12T21:54:29.315Z,16.89
2018-09-12T21:56:58.337Z,16.85
2018-09-12T21:59:27.300Z,16.82
2018-09-12T22:01:56.269Z,16.75
2018-09-12T22:04:25.220Z,16.66
2018-09-12T22:06:54.211Z,16.59
2018-09-12T22:09:23.253Z,16.54
2018-09-12T22:11:52.215Z,16.44
2018-09-12T22:14:21.147Z,16.35
2018-09-12T22:16:50.213Z,16.32
2018-09-12T22:19:19.167Z,16.31
2018-09-12T22:21:48.112Z,16.32
2018-09-12T22:24:17.083Z,16.34
2018-09-12T22:26:46.179Z,16.37
2018-09-12T22:29:15.212Z,16.36
2018-09-12T22:31:44.167Z,16.36
2018-09-12T22:34:13.158Z,16.31
2018-09-12T22:36:42.115Z,16.28
2018-09-12T22:39:11.972Z,16.23
2018-09-12T22:41:41.304Z,16.21
2018-09-12T22:44:10.316Z,16.17
2018-09-12T22:46:39.334Z,16.12
2018-09-12T22:49:08.364Z,16.10
2018-09-12T22:51:37.462Z,16.10
2018-09-12T22:54:06.510Z,16.08
2018-09-12T22:56:35.497Z,16.03
2018-09-12T22:59:04.496Z,16.01
2018-09-12T23:01:33.583Z,15.98
2018-09-12T23:04:02.515Z,15.97
2018-09-12T23:06:31.516Z,15.89
2018-09-12T23:09:00.593Z,15.83
2018-09-12T23:11:29.545Z,15.76
2018-09-12T23:13:58.513Z,15.75
2018-09-12T23:16:27.460Z,15.72
2018-09-12T23:18:56.424Z,15.68
2018-09-12T23:21:25.414Z,15.69
2018-09-12T23:23:54.378Z,15.66
2018-09-12T23:26:23.317Z,15.62
2018-09-12T23:28:52.388Z,15.57
2018-09-12T23:31:21.348Z,15.54
2018-09-12T23:33:50.308Z,15.52
2018-09-12T23:36:19.298Z,15.48
2018-09-12T23:38:48.269Z,15.43
2018-09-12T23:41:17.222Z,15.40
2018-09-12T23:43:46.237Z,15.41
2018-09-12T23:46:15.199Z,15.39
2018-09-12T23:48:44.161Z,15.39
2018-09-12T23:51:13.320Z,15.39
2018-09-12T23:53:42.268Z,15.40
2018-09-12T23:56:11.245Z,15.39
2018-09-12T23:58:40.200Z,15.38
